< Typhoon 197216 1972 Season Typhoon 197218 >
Typhoon 197217 (ELSIE)
General InformationTrack Information on Google Maps || Disaster Info.ResourceGoogle EarthGE AnimationAtom FeedGeoJSON
Detalied Best Track (Time Zone = UTC)
Year Month Day Hour Lat. Long. Pressure (hPa) Wind (kt) Class Image Chart
1972 8 31 06 12.7 118.3 1004 0 2 -- Chart
1972 8 31 12 13.6 117.1 998 0 2 -- Chart
1972 8 31 18 14.3 116.1 992 0 9 -- Chart
1972 9 1 00 14.9 114.9 985 0 9 -- Chart
1972 9 1 06 15.4 113.7 985 0 9 -- Chart
1972 9 1 12 15.7 113.0 985 0 9 -- Chart
1972 9 1 18 16.0 112.3 990 0 9 -- Chart
1972 9 2 00 16.3 111.4 990 0 9 -- Chart
1972 9 2 06 16.0 111.2 985 0 9 -- Chart
1972 9 2 12 15.7 111.1 985 0 9 -- Chart
1972 9 2 18 15.7 110.2 980 0 9 -- Chart
1972 9 3 00 15.6 110.2 975 0 9 -- Chart
1972 9 3 06 15.5 109.9 975 0 9 -- Chart
1972 9 3 12 15.4 109.6 980 0 9 -- Chart
1972 9 3 18 15.2 109.4 980 0 9 -- Chart
1972 9 4 00 15.2 109.0 985 0 9 -- Chart
1972 9 4 06 15.1 108.3 992 0 9 -- Chart
1972 9 4 12 15.0 107.6 996 0 2 -- Chart
1972 9 4 18 15.0 106.5 1000 0 2 -- Chart
1972 9 5 00 15.1 105.5 1000 0 2 -- Chart
1972 9 5 06 15.3 104.5 1000 0 2 -- Chart
1972 9 5 12 15.2 103.5 1000 0 2 -- Chart
1972 9 5 18 15.0 102.8 1000 0 2 -- Chart
1972 9 6 00 14.8 101.9 1000 0 2 -- Chart
1972 9 6 06 14.6 101.0 1000 0 2 -- Chart
1972 9 6 12 14.5 100.0 1000 0 2 -- Chart
1972 9 6 18 14.4 99.5 1004 0 2 -- Chart
1972 9 7 00 14.4 99.0 1004 0 2 -- Chart
Japan Meteorological Agency Best Track Data | Correction Date : 1990-10-17
< Typhoon 197216 1972 Season Typhoon 197218 >

Help